createdAt,value
2023-05-22T00:00:20.772Z,1012.22
2023-05-22T00:00:52.871Z,1012.22
2023-05-22T00:01:21.022Z,1012.12
2023-05-22T00:01:53.616Z,1012.12
2023-05-22T00:02:23.824Z,1012.22
2023-05-22T00:02:54.941Z,1012.22
2023-05-22T00:03:25.051Z,1012.02
2023-05-22T00:03:56.590Z,1012.02
2023-05-22T00:04:26.914Z,1012.22
2023-05-22T00:04:59.329Z,1012.22
2023-05-22T00:05:29.473Z,1011.92
2023-05-22T00:06:00.937Z,1011.92
2023-05-22T00:06:31.007Z,1012.33
2023-05-22T00:07:09.252Z,1012.33
2023-05-22T00:07:33.718Z,1012.22
2023-05-22T00:08:03.940Z,1012.12
2023-05-22T00:08:35.709Z,1012.12
2023-05-22T00:09:06.807Z,1012.12
2023-05-22T00:09:37.676Z,1012.12
2023-05-22T00:10:08.748Z,1012.12
2023-05-22T00:10:40.387Z,1012.12
2023-05-22T00:11:09.965Z,1012.33
2023-05-22T00:11:42.334Z,1012.33
2023-05-22T00:12:12.962Z,1012.33
2023-05-22T00:12:44.006Z,1012.33
2023-05-22T00:13:14.045Z,1012.02
2023-05-22T00:13:45.672Z,1012.02
2023-05-22T00:14:15.921Z,1012.12
2023-05-22T00:14:47.611Z,1012.12
2023-05-22T00:15:18.947Z,1012.22
2023-05-22T00:15:49.866Z,1012.22
2023-05-22T00:16:19.981Z,1012.12
2023-05-22T00:16:51.652Z,1012.12
2023-05-22T00:17:23.027Z,1012.02
2023-05-22T00:17:53.640Z,1012.02
2023-05-22T00:18:23.929Z,1012.02
2023-05-22T00:18:56.252Z,1012.02
2023-05-22T00:19:25.994Z,1012.22
2023-05-22T00:19:57.625Z,1012.22
2023-05-22T00:20:42.036Z,1012.12
2023-05-22T00:20:59.796Z,1012.12
2023-05-22T00:21:30.053Z,1012.33
2023-05-22T00:22:01.603Z,1012.33
2023-05-22T00:22:33.098Z,1012.12
2023-05-22T00:23:04.033Z,1012.12
2023-05-22T00:23:34.209Z,1012.12
2023-05-22T00:24:05.751Z,1012.33
2023-05-22T00:24:35.949Z,1012.33
2023-05-22T00:25:09.099Z,1012.33
2023-05-22T00:25:37.922Z,1012.33
2023-05-22T00:26:09.624Z,1012.12
2023-05-22T00:26:40.138Z,1012.12
2023-05-22T00:27:11.644Z,1012.02
2023-05-22T00:27:42.931Z,1012.02
2023-05-22T00:28:13.605Z,1012.02
2023-05-22T00:28:43.923Z,1012.02
2023-05-22T00:29:15.929Z,1012.12
2023-05-22T00:29:45.912Z,1012.12
2023-05-22T00:30:19.179Z,1012.02
2023-05-22T00:30:48.074Z,1012.02
2023-05-22T00:31:19.629Z,1012.12
2023-05-22T00:31:49.951Z,1012.12
2023-05-22T00:32:21.632Z,1012.22
2023-05-22T00:32:53.118Z,1012.22
2023-05-22T00:33:24.081Z,1012.02
2023-05-22T00:33:54.028Z,1012.02
2023-05-22T00:34:25.665Z,1012.02
2023-05-22T00:34:56.105Z,1012.02
2023-05-22T00:35:28.136Z,1012.22
2023-05-22T00:35:58.490Z,1012.22
2023-05-22T00:36:29.672Z,1012.22
2023-05-22T00:36:59.968Z,1012.22
2023-05-22T00:37:31.643Z,1011.82
2023-05-22T00:38:10.205Z,1011.82
2023-05-22T00:38:34.525Z,1012.12
2023-05-22T00:39:03.971Z,1012.02
2023-05-22T00:39:35.626Z,1012.02
2023-05-22T00:40:06.947Z,1012.12
2023-05-22T00:40:41.407Z,1012.12
2023-05-22T00:41:07.939Z,1012.43
2023-05-22T00:41:39.617Z,1012.43
2023-05-22T00:42:09.942Z,1012.12
2023-05-22T00:42:42.042Z,1012.12
2023-05-22T00:43:12.884Z,1012.33
2023-05-22T00:43:43.973Z,1012.33
2023-05-22T00:44:13.921Z,1012.22
2023-05-22T00:44:45.631Z,1012.22
2023-05-22T00:45:17.733Z,1012.12
2023-05-22T00:45:47.684Z,1012.12
2023-05-22T00:46:18.024Z,1012.33
2023-05-22T00:46:49.713Z,1012.33
2023-05-22T00:47:20.060Z,1012.22
2023-05-22T00:47:51.685Z,1012.22
2023-05-22T00:48:22.938Z,1012.02
2023-05-22T00:48:53.588Z,1012.02
2023-05-22T00:49:24.704Z,1012.12
2023-05-22T00:49:55.636Z,1012.12
2023-05-22T00:50:26.524Z,1012.22
2023-05-22T00:50:57.612Z,1012.22
2023-05-22T00:51:27.942Z,1012.12
2023-05-22T00:52:00.329Z,1012.12
2023-05-22T00:52:29.925Z,1012.12
2023-05-22T00:53:01.661Z,1012.12
2023-05-22T00:53:33.006Z,1012.12
2023-05-22T00:54:04.015Z,1012.12
2023-05-22T00:54:34.016Z,1012.12
2023-05-22T00:55:06.415Z,1012.12
2023-05-22T00:55:36.003Z,1012.12
2023-05-22T00:56:07.902Z,1012.02
2023-05-22T00:56:37.931Z,1012.02
2023-05-22T00:57:10.105Z,1012.22
2023-05-22T00:57:39.909Z,1012.22
2023-05-22T00:58:11.681Z,1012.02
2023-05-22T00:58:43.521Z,1012.02
2023-05-22T00:59:12.897Z,1012.22
2023-05-22T00:59:44.630Z,1012.22
2023-05-22T01:00:17.533Z,1012.22
2023-05-22T01:00:55.816Z,1012.22
2023-05-22T01:01:16.966Z,1012.33
2023-05-22T01:01:48.716Z,1012.33
2023-05-22T01:02:18.936Z,1012.12
2023-05-22T01:02:51.719Z,1012.12
2023-05-22T01:03:21.035Z,1012.43
2023-05-22T01:03:53.918Z,1012.43
2023-05-22T01:04:23.200Z,1012.12
2023-05-22T01:04:54.627Z,1012.12
2023-05-22T01:05:25.462Z,1012.22
2023-05-22T01:05:56.555Z,1012.22
2023-05-22T01:06:26.924Z,1012.33
2023-05-22T01:06:58.656Z,1012.33
2023-05-22T01:07:28.932Z,1011.92
2023-05-22T01:08:00.855Z,1011.92
2023-05-22T01:08:30.902Z,1012.33
2023-05-22T01:09:09.221Z,1012.33
2023-05-22T01:09:34.345Z,1012.12
2023-05-22T01:10:04.500Z,1012.22
2023-05-22T01:10:35.582Z,1012.22
2023-05-22T01:11:05.976Z,1012.12
2023-05-22T01:11:37.610Z,1012.12
2023-05-22T01:12:07.933Z,1012.53
2023-05-22T01:12:39.758Z,1012.53
2023-05-22T01:13:09.987Z,1012.12
2023-05-22T01:13:41.629Z,1012.12
2023-05-22T01:14:12.841Z,1012.22
2023-05-22T01:14:43.987Z,1012.22
2023-05-22T01:15:15.504Z,1012.22
2023-05-22T01:15:45.692Z,1012.22
2023-05-22T01:16:16.740Z,1012.12
2023-05-22T01:16:47.866Z,1012.12
2023-05-22T01:17:17.896Z,1012.12
2023-05-22T01:17:49.578Z,1012.12
2023-05-22T01:18:19.981Z,1012.12
2023-05-22T01:18:52.372Z,1012.12
2023-05-22T01:19:22.946Z,1012.22
2023-05-22T01:19:53.589Z,1012.22
2023-05-22T01:20:24.567Z,1012.02
2023-05-22T01:20:55.647Z,1012.02
2023-05-22T01:21:25.966Z,1011.92
2023-05-22T01:21:57.596Z,1011.92
2023-05-22T01:22:27.972Z,1012.12
2023-05-22T01:23:00.141Z,1012.12
2023-05-22T01:23:29.937Z,1012.12
2023-05-22T01:24:01.711Z,1012.12
2023-05-22T01:24:33.114Z,1012.12
2023-05-22T01:25:04.564Z,1012.22
2023-05-22T01:25:33.929Z,1012.22
2023-05-22T01:26:05.584Z,1012.12
2023-05-22T01:26:35.963Z,1012.12
2023-05-22T01:27:07.654Z,1012.12
2023-05-22T01:27:38.171Z,1012.12
2023-05-22T01:28:09.640Z,1012.12
2023-05-22T01:28:39.873Z,1012.12
2023-05-22T01:29:11.588Z,1012.02
2023-05-22T01:29:43.181Z,1012.02
2023-05-22T01:30:14.973Z,1012.12
2023-05-22T01:30:44.013Z,1012.12
2023-05-22T01:31:15.653Z,1012.02
2023-05-22T01:31:45.967Z,1012.02
2023-05-22T01:32:17.584Z,1012.12
2023-05-22T01:32:48.056Z,1012.12
2023-05-22T01:33:19.693Z,1012.33
2023-05-22T01:33:50.140Z,1012.33
2023-05-22T01:34:21.576Z,1012.12
2023-05-22T01:34:52.936Z,1012.12
2023-05-22T01:35:24.568Z,1012.22
2023-05-22T01:35:53.952Z,1012.22
2023-05-22T01:36:26.169Z,1012.02
2023-05-22T01:36:55.914Z,1012.02
2023-05-22T01:37:27.886Z,1012.12
2023-05-22T01:37:57.876Z,1012.12
2023-05-22T01:38:29.585Z,1012.22
2023-05-22T01:38:59.924Z,1012.22
2023-05-22T01:39:31.916Z,1012.22
2023-05-22T01:40:10.690Z,1012.22
2023-05-22T01:40:42.104Z,1012.12
2023-05-22T01:41:04.176Z,1012.12
2023-05-22T01:41:35.596Z,1012.12
2023-05-22T01:42:05.969Z,1012.22
2023-05-22T01:42:37.606Z,1012.22
2023-05-22T01:43:08.992Z,1012.33
2023-05-22T01:43:39.606Z,1012.33
2023-05-22T01:44:09.917Z,1012.22
2023-05-22T01:44:41.622Z,1012.22
2023-05-22T01:45:14.513Z,1012.12
2023-05-22T01:45:44.664Z,1012.12
2023-05-22T01:46:14.100Z,1012.33
2023-05-22T01:46:45.661Z,1012.33
2023-05-22T01:47:16.309Z,1012.22
2023-05-22T01:47:47.582Z,1012.22
2023-05-22T01:48:17.958Z,1012.43
2023-05-22T01:48:49.611Z,1012.43
2023-05-22T01:49:19.950Z,1012.43
2023-05-22T01:49:52.347Z,1012.43
2023-05-22T01:50:23.467Z,1012.33
2023-05-22T01:50:53.644Z,1012.33
2023-05-22T01:51:23.867Z,1012.02
2023-05-22T01:51:55.624Z,1012.02
2023-05-22T01:52:25.936Z,1011.82
2023-05-22T01:52:57.621Z,1011.82
2023-05-22T01:53:27.899Z,1012.33
2023-05-22T01:53:59.609Z,1012.33
2023-05-22T01:54:29.907Z,1012.12
2023-05-22T01:55:02.709Z,1012.12
2023-05-22T01:55:33.169Z,1012.33
2023-05-22T01:56:04.034Z,1012.12
2023-05-22T01:56:34.612Z,1012.12
2023-05-22T01:57:05.642Z,1012.12
2023-05-22T01:57:35.864Z,1012.12
2023-05-22T01:58:07.612Z,1011.92
2023-05-22T01:58:37.921Z,1011.92
2023-05-22T01:59:09.343Z,1012.12
2023-05-22T01:59:40.004Z,1012.12
2023-05-22T02:00:13.862Z,1012.12
2023-05-22T02:01:05.558Z,1012.12
2023-05-22T02:01:16.775Z,1012.12
2023-05-22T02:01:44.074Z,1012.12
2023-05-22T02:02:15.613Z,1012.22
2023-05-22T02:02:46.466Z,1012.22
2023-05-22T02:03:18.422Z,1012.22
2023-05-22T02:03:48.143Z,1012.22
2023-05-22T02:04:19.603Z,1012.12
2023-05-22T02:04:49.884Z,1012.12
2023-05-22T02:05:22.840Z,1012.22
2023-05-22T02:05:53.879Z,1012.22
2023-05-22T02:06:24.222Z,1012.02
2023-05-22T02:06:53.871Z,1012.02
2023-05-22T02:07:25.705Z,1012.12
2023-05-22T02:07:55.939Z,1012.12
2023-05-22T02:08:27.573Z,1012.02
2023-05-22T02:08:57.864Z,1012.02
2023-05-22T02:09:29.574Z,1012.02
2023-05-22T02:10:02.208Z,1012.02
2023-05-22T02:10:31.653Z,1012.02
2023-05-22T02:11:09.900Z,1012.02
2023-05-22T02:11:33.703Z,1011.82
2023-05-22T02:12:03.914Z,1012.02
2023-05-22T02:12:37.093Z,1012.02
2023-05-22T02:13:05.858Z,1012.22
2023-05-22T02:13:37.581Z,1012.22
2023-05-22T02:14:08.686Z,1012.12
2023-05-22T02:14:39.648Z,1012.12
2023-05-22T02:15:11.586Z,1012.02
2023-05-22T02:15:41.678Z,1012.02
2023-05-22T02:16:12.943Z,1012.12
2023-05-22T02:16:44.269Z,1012.12
2023-05-22T02:17:13.963Z,1011.92
2023-05-22T02:17:45.743Z,1011.92
2023-05-22T02:18:15.910Z,1012.12
2023-05-22T02:18:47.646Z,1012.12
2023-05-22T02:19:17.958Z,1012.02
2023-05-22T02:19:49.794Z,1012.02
2023-05-22T02:20:20.352Z,1011.92
2023-05-22T02:20:51.608Z,1011.92
2023-05-22T02:21:22.859Z,1011.92
2023-05-22T02:21:53.638Z,1011.92
2023-05-22T02:22:23.973Z,1011.92
2023-05-22T02:22:55.768Z,1011.92
2023-05-22T02:23:26.641Z,1011.92
2023-05-22T02:23:57.604Z,1011.92
2023-05-22T02:24:27.954Z,1011.92
2023-05-22T02:24:59.592Z,1011.92
2023-05-22T02:25:30.346Z,1011.92
2023-05-22T02:26:01.728Z,1011.92
2023-05-22T02:26:32.991Z,1012.02
2023-05-22T02:27:04.085Z,1011.82
2023-05-22T02:27:34.655Z,1011.82
2023-05-22T02:28:05.626Z,1012.02
2023-05-22T02:28:35.979Z,1012.02
2023-05-22T02:29:07.600Z,1011.82
2023-05-22T02:29:37.934Z,1011.82
2023-05-22T02:30:11.709Z,1011.92
2023-05-22T02:30:40.079Z,1011.92
2023-05-22T02:31:11.667Z,1011.82
2023-05-22T02:31:43.067Z,1011.82
2023-05-22T02:32:13.604Z,1012.02
2023-05-22T02:32:43.991Z,1012.02
2023-05-22T02:33:15.582Z,1011.92
2023-05-22T02:33:46.078Z,1011.92
2023-05-22T02:34:17.569Z,1011.92
2023-05-22T02:34:47.930Z,1011.92
2023-05-22T02:35:20.243Z,1012.02
2023-05-22T02:35:49.975Z,1012.02
2023-05-22T02:36:21.597Z,1011.82
2023-05-22T02:36:53.427Z,1011.82
2023-05-22T02:37:23.933Z,1011.92
2023-05-22T02:37:53.867Z,1011.92
2023-05-22T02:38:25.636Z,1011.92
2023-05-22T02:38:55.905Z,1011.92
2023-05-22T02:39:27.589Z,1012.02
2023-05-22T02:39:58.066Z,1012.02
2023-05-22T02:40:43.536Z,1011.82
2023-05-22T02:41:00.546Z,1011.82
2023-05-22T02:41:31.734Z,1011.92
2023-05-22T02:42:10.024Z,1011.92
2023-05-22T02:42:33.696Z,1011.82
2023-05-22T02:43:03.948Z,1011.82
2023-05-22T02:43:36.316Z,1011.82
2023-05-22T02:44:05.893Z,1011.92
2023-05-22T02:44:37.588Z,1011.92
2023-05-22T02:45:09.639Z,1012.02
2023-05-22T02:45:39.633Z,1012.02
2023-05-22T02:46:10.006Z,1011.82
2023-05-22T02:46:41.670Z,1011.82
2023-05-22T02:47:13.051Z,1011.72
2023-05-22T02:47:43.952Z,1011.72
2023-05-22T02:48:13.955Z,1011.82
2023-05-22T02:48:45.800Z,1011.82
2023-05-22T02:49:15.932Z,1011.82
2023-05-22T02:49:47.667Z,1011.82
2023-05-22T02:50:19.096Z,1011.72
2023-05-22T02:50:49.631Z,1011.72
2023-05-22T02:51:19.871Z,1011.82
2023-05-22T02:51:51.594Z,1011.82
2023-05-22T02:52:22.927Z,1011.82
2023-05-22T02:52:53.559Z,1011.82
2023-05-22T02:53:23.891Z,1011.92
2023-05-22T02:53:55.570Z,1011.92
2023-05-22T02:54:26.302Z,1011.82
2023-05-22T02:54:57.650Z,1011.82
2023-05-22T02:55:28.395Z,1011.92
2023-05-22T02:55:59.633Z,1011.92
2023-05-22T02:56:29.861Z,1011.82
2023-05-22T02:57:02.890Z,1011.82
2023-05-22T02:57:33.359Z,1011.92
2023-05-22T02:58:04.002Z,1011.82
2023-05-22T02:58:33.884Z,1011.82
2023-05-22T02:59:04.860Z,1011.82
2023-05-22T02:59:35.932Z,1011.82
2023-05-22T03:00:08.970Z,1011.92
2023-05-22T03:00:50.075Z,1011.92
2023-05-22T03:01:10.776Z,1011.92
2023-05-22T03:01:39.968Z,1011.92
2023-05-22T03:02:11.827Z,1011.72
2023-05-22T03:02:43.060Z,1011.72
2023-05-22T03:03:13.839Z,1011.82
2023-05-22T03:03:44.199Z,1011.82
2023-05-22T03:04:15.670Z,1011.82
2023-05-22T03:04:46.001Z,1011.82
2023-05-22T03:05:18.395Z,1011.61
2023-05-22T03:05:48.002Z,1011.61
2023-05-22T03:06:19.604Z,1012.02
2023-05-22T03:06:50.035Z,1012.02
2023-05-22T03:07:21.590Z,1011.92
2023-05-22T03:07:52.965Z,1011.92
2023-05-22T03:08:24.316Z,1011.72
2023-05-22T03:08:54.070Z,1011.72
2023-05-22T03:09:26.243Z,1011.82
2023-05-22T03:09:56.019Z,1011.82
2023-05-22T03:10:28.905Z,1011.82
2023-05-22T03:10:58.423Z,1011.82
2023-05-22T03:11:29.730Z,1011.82
2023-05-22T03:12:00.057Z,1011.82
2023-05-22T03:12:31.933Z,1011.92
2023-05-22T03:13:10.493Z,1011.92
2023-05-22T03:13:33.686Z,1011.92
2023-05-22T03:14:03.979Z,1011.72
2023-05-22T03:14:36.808Z,1011.72
2023-05-22T03:15:07.474Z,1011.72
2023-05-22T03:15:37.701Z,1011.72
2023-05-22T03:16:08.097Z,1011.82
2023-05-22T03:16:39.593Z,1011.82
2023-05-22T03:17:10.043Z,1011.82
2023-05-22T03:17:41.933Z,1011.82
2023-05-22T03:18:13.267Z,1011.82
2023-05-22T03:18:44.368Z,1011.82
2023-05-22T03:19:14.323Z,1011.72
2023-05-22T03:19:46.053Z,1011.72
2023-05-22T03:20:16.615Z,1011.92
2023-05-22T03:20:51.855Z,1011.92
2023-05-22T03:21:18.510Z,1011.92
2023-05-22T03:21:49.752Z,1011.92
2023-05-22T03:22:20.057Z,1011.72
2023-05-22T03:22:51.704Z,1011.72
2023-05-22T03:23:23.174Z,1011.72
2023-05-22T03:23:54.413Z,1011.72
2023-05-22T03:24:24.187Z,1011.82
2023-05-22T03:24:55.724Z,1011.82
2023-05-22T03:25:26.591Z,1011.92
2023-05-22T03:25:57.750Z,1011.92
2023-05-22T03:26:28.035Z,1011.92
2023-05-22T03:26:59.753Z,1011.92
2023-05-22T03:27:30.038Z,1011.72
2023-05-22T03:28:01.989Z,1011.72
2023-05-22T03:28:33.269Z,1011.82
2023-05-22T03:29:04.398Z,1011.82
2023-05-22T03:29:34.056Z,1011.82
2023-05-22T03:30:07.549Z,1011.92
2023-05-22T03:30:37.238Z,1011.92
2023-05-22T03:31:07.765Z,1011.82
2023-05-22T03:31:38.051Z,1011.82
2023-05-22T03:32:09.759Z,1011.92
2023-05-22T03:32:40.244Z,1011.92
2023-05-22T03:33:11.875Z,1011.92
2023-05-22T03:33:43.105Z,1011.92
2023-05-22T03:34:13.731Z,1011.72
2023-05-22T03:34:44.659Z,1011.72
2023-05-22T03:35:16.550Z,1011.92
2023-05-22T03:35:46.087Z,1011.92
2023-05-22T03:36:17.711Z,1011.92
2023-05-22T03:36:48.070Z,1011.92
2023-05-22T03:37:20.365Z,1011.61
2023-05-22T03:37:50.111Z,1011.61
2023-05-22T03:38:21.755Z,1011.82
2023-05-22T03:38:53.069Z,1011.82
2023-05-22T03:39:24.194Z,1011.92
2023-05-22T03:39:54.040Z,1011.92
2023-05-22T03:40:26.611Z,1011.92
2023-05-22T03:40:56.056Z,1011.92
2023-05-22T03:41:27.913Z,1011.72
2023-05-22T03:41:58.091Z,1011.72
2023-05-22T03:42:29.762Z,1011.92
2023-05-22T03:43:00.042Z,1011.92
2023-05-22T03:43:31.724Z,1012.02
2023-05-22T03:44:10.174Z,1012.02
2023-05-22T03:44:33.907Z,1011.72
2023-05-22T03:45:05.164Z,1011.92
2023-05-22T03:45:36.827Z,1011.92
2023-05-22T03:46:06.342Z,1011.82
2023-05-22T03:46:39.468Z,1011.82
2023-05-22T03:47:08.065Z,1011.51
2023-05-22T03:47:39.866Z,1011.51
2023-05-22T03:48:10.888Z,1011.72
2023-05-22T03:48:41.730Z,1011.72
2023-05-22T03:49:13.123Z,1011.72
2023-05-22T03:49:44.081Z,1011.72
2023-05-22T03:50:14.692Z,1011.82
2023-05-22T03:50:46.488Z,1011.82
2023-05-22T03:51:47.861Z,1011.72
2023-05-22T03:52:18.124Z,1011.72
2023-05-22T03:52:49.712Z,1011.72
2023-05-22T03:53:20.115Z,1011.72
2023-05-22T03:53:51.711Z,1011.72
2023-05-22T03:54:23.044Z,1011.92
2023-05-22T03:54:53.846Z,1011.92
2023-05-22T03:55:24.512Z,1011.82
2023-05-22T03:55:55.749Z,1011.82
2023-05-22T03:56:26.068Z,1011.72
2023-05-22T03:56:57.868Z,1011.72
2023-05-22T03:57:28.082Z,1011.72
2023-05-22T03:57:59.746Z,1011.72
2023-05-22T03:58:30.055Z,1011.92
2023-05-22T03:59:01.311Z,1011.92
2023-05-22T03:59:33.152Z,1011.61
2023-05-22T04:00:06.480Z,1011.82
2023-05-22T04:00:34.360Z,1011.82
2023-05-22T04:01:06.724Z,1011.61
2023-05-22T04:01:36.714Z,1011.61
2023-05-22T04:02:07.928Z,1011.72
2023-05-22T04:02:38.073Z,1011.72
2023-05-22T04:03:09.785Z,1011.72
2023-05-22T04:03:40.087Z,1011.72
2023-05-22T04:04:12.489Z,1011.61
2023-05-22T04:04:43.160Z,1011.61
2023-05-22T04:05:14.590Z,1011.61
2023-05-22T04:05:44.079Z,1011.61
2023-05-22T04:06:15.823Z,1011.61
2023-05-22T04:06:45.980Z,1011.61
2023-05-22T04:07:17.803Z,1011.82
2023-05-22T04:07:48.063Z,1011.82
2023-05-22T04:08:20.209Z,1011.82
2023-05-22T04:08:50.027Z,1011.82
2023-05-22T04:09:21.749Z,1011.72
2023-05-22T04:09:53.113Z,1011.72
2023-05-22T04:10:25.006Z,1011.72
2023-05-22T04:10:54.045Z,1011.72
2023-05-22T04:11:25.777Z,1011.82
2023-05-22T04:11:56.481Z,1011.82
2023-05-22T04:12:28.160Z,1011.72
2023-05-22T04:12:58.124Z,1011.72
2023-05-22T04:13:29.722Z,1011.72
2023-05-22T04:14:00.059Z,1011.72
2023-05-22T04:14:31.732Z,1011.72
2023-05-22T04:15:11.019Z,1011.72
2023-05-22T04:15:34.437Z,1011.61
2023-05-22T04:16:04.689Z,1011.82
2023-05-22T04:16:36.011Z,1011.82
2023-05-22T04:17:06.082Z,1011.51
2023-05-22T04:17:39.085Z,1011.51
2023-05-22T04:18:08.168Z,1011.61
2023-05-22T04:18:39.882Z,1011.61
2023-05-22T04:19:10.320Z,1011.72
2023-05-22T04:19:42.131Z,1011.72
2023-05-22T04:20:14.311Z,1011.72
2023-05-22T04:20:44.621Z,1011.72
2023-05-22T04:21:14.080Z,1011.61
2023-05-22T04:21:46.257Z,1011.61
2023-05-22T04:22:16.086Z,1011.92
2023-05-22T04:22:47.862Z,1011.92
2023-05-22T04:23:18.073Z,1011.82
2023-05-22T04:23:49.756Z,1011.82
2023-05-22T04:24:20.036Z,1011.92
2023-05-22T04:24:51.757Z,1011.92
2023-05-22T04:25:23.660Z,1011.72
2023-05-22T04:25:53.908Z,1011.72
2023-05-22T04:26:24.055Z,1012.02
2023-05-22T04:26:55.839Z,1012.02
2023-05-22T04:27:26.086Z,1012.12
2023-05-22T04:27:58.447Z,1012.12
2023-05-22T04:28:28.586Z,1011.92
2023-05-22T04:28:59.777Z,1011.92
2023-05-22T04:29:30.024Z,1012.12
2023-05-22T04:30:02.865Z,1012.12
2023-05-22T04:30:33.461Z,1011.92
2023-05-22T04:31:05.259Z,1011.92
2023-05-22T04:31:34.100Z,1011.92
2023-05-22T04:32:05.756Z,1011.82
2023-05-22T04:32:36.039Z,1011.82
2023-05-22T04:33:07.809Z,1012.02
2023-05-22T04:33:37.997Z,1012.02
2023-05-22T04:34:10.399Z,1012.02
2023-05-22T04:34:40.149Z,1012.02
2023-05-22T04:35:12.314Z,1011.72
2023-05-22T04:35:43.152Z,1011.72
2023-05-22T04:36:13.738Z,1011.92
2023-05-22T04:36:44.190Z,1011.92
2023-05-22T04:37:15.874Z,1011.92
2023-05-22T04:37:46.058Z,1011.92
2023-05-22T04:38:18.045Z,1011.82
2023-05-22T04:38:48.036Z,1011.82
2023-05-22T04:39:19.737Z,1012.12
2023-05-22T04:39:50.010Z,1012.12
2023-05-22T04:40:22.188Z,1011.82
2023-05-22T04:40:53.096Z,1011.82
2023-05-22T04:41:24.353Z,1012.12
2023-05-22T04:41:54.824Z,1012.12
2023-05-22T04:42:25.717Z,1011.82
2023-05-22T04:42:56.057Z,1011.82
2023-05-22T04:43:27.738Z,1012.02
2023-05-22T04:43:58.105Z,1012.02
2023-05-22T04:44:30.407Z,1012.02
2023-05-22T04:45:00.044Z,1012.02
2023-05-22T04:45:32.641Z,1011.82
2023-05-22T04:46:10.940Z,1011.82
2023-05-22T04:46:34.057Z,1011.82
2023-05-22T04:47:06.029Z,1012.12
2023-05-22T04:47:36.857Z,1012.12
2023-05-22T04:48:06.073Z,1012.22
2023-05-22T04:48:37.948Z,1012.22
2023-05-22T04:49:08.005Z,1012.02
2023-05-22T04:49:44.121Z,1012.02
2023-05-22T04:50:10.502Z,1012.02
2023-05-22T04:50:41.653Z,1012.02
2023-05-22T04:51:14.391Z,1012.22
2023-05-22T04:51:43.342Z,1012.22
2023-05-22T04:52:14.675Z,1011.92
2023-05-22T04:52:45.081Z,1011.92
2023-05-22T04:53:16.724Z,1011.92
2023-05-22T04:53:47.564Z,1011.92
2023-05-22T04:54:18.761Z,1012.02
2023-05-22T04:54:49.056Z,1012.02
2023-05-22T04:55:21.293Z,1012.22
2023-05-22T04:55:51.037Z,1012.22
2023-05-22T04:56:35.591Z,1012.02
2023-05-22T04:56:53.221Z,1012.02
2023-05-22T04:57:24.838Z,1011.92
2023-05-22T04:57:55.024Z,1011.92
2023-05-22T04:58:26.737Z,1011.92
2023-05-22T04:58:57.062Z,1011.92
2023-05-22T04:59:28.113Z,1011.92
2023-05-22T04:59:59.799Z,1011.92
2023-05-22T05:00:32.564Z,1012.22
2023-05-22T05:01:03.915Z,1012.22
2023-05-22T05:01:34.056Z,1012.12
2023-05-22T05:02:04.772Z,1011.82
2023-05-22T05:02:34.561Z,1011.82
2023-05-22T05:03:05.887Z,1011.92
2023-05-22T05:03:36.133Z,1011.92
2023-05-22T05:04:07.819Z,1012.02
2023-05-22T05:04:38.043Z,1012.02
2023-05-22T05:05:10.852Z,1011.82
2023-05-22T05:05:40.057Z,1011.82
2023-05-22T05:06:11.782Z,1011.72
2023-05-22T05:06:43.094Z,1011.72
2023-05-22T05:07:13.722Z,1012.12
2023-05-22T05:07:44.152Z,1012.12
2023-05-22T05:08:15.790Z,1012.12
2023-05-22T05:08:46.410Z,1012.12
2023-05-22T05:09:18.681Z,1011.82
2023-05-22T05:09:47.977Z,1011.82
2023-05-22T05:10:20.270Z,1011.82
2023-05-22T05:10:50.015Z,1011.82
2023-05-22T05:11:22.437Z,1011.82
2023-05-22T05:11:53.022Z,1011.82
2023-05-22T05:12:24.085Z,1011.92
2023-05-22T05:12:54.390Z,1011.92
2023-05-22T05:13:26.120Z,1011.92
2023-05-22T05:13:56.258Z,1011.92
2023-05-22T05:14:27.916Z,1012.02
2023-05-22T05:14:58.133Z,1012.02
2023-05-22T05:15:31.067Z,1011.92
2023-05-22T05:16:00.236Z,1011.92
2023-05-22T05:16:32.019Z,1011.82
2023-05-22T05:17:10.309Z,1011.82
2023-05-22T05:17:34.237Z,1012.12
2023-05-22T05:18:04.451Z,1012.12
2023-05-22T05:18:36.441Z,1012.12
2023-05-22T05:19:06.214Z,1012.12
2023-05-22T05:19:37.900Z,1012.12
2023-05-22T05:20:08.929Z,1011.92
2023-05-22T05:20:44.611Z,1011.92
2023-05-22T05:21:10.253Z,1012.12
2023-05-22T05:21:41.857Z,1012.12
2023-05-22T05:22:13.380Z,1011.92
2023-05-22T05:22:44.225Z,1011.92
2023-05-22T05:23:14.164Z,1012.12
2023-05-22T05:23:45.859Z,1012.12
2023-05-22T05:24:16.160Z,1011.92
2023-05-22T05:24:48.532Z,1011.92
2023-05-22T05:25:18.763Z,1011.92
2023-05-22T05:25:50.113Z,1011.92
2023-05-22T05:26:20.280Z,1011.92
2023-05-22T05:26:51.877Z,1011.92
2023-05-22T05:27:23.216Z,1011.92
2023-05-22T05:27:53.881Z,1011.92
2023-05-22T05:28:24.184Z,1011.72
2023-05-22T05:28:57.072Z,1011.72
2023-05-22T05:29:26.167Z,1012.12
2023-05-22T05:29:58.304Z,1012.12
2023-05-22T05:30:29.215Z,1011.92
2023-05-22T05:30:59.946Z,1011.92
2023-05-22T05:31:30.200Z,1012.12
2023-05-22T05:32:01.931Z,1012.12
2023-05-22T05:32:33.885Z,1012.22
2023-05-22T05:33:04.466Z,1012.02
2023-05-22T05:33:34.474Z,1012.02
2023-05-22T05:34:05.869Z,1012.22
2023-05-22T05:34:36.171Z,1012.22
2023-05-22T05:35:08.437Z,1012.02
2023-05-22T05:35:41.406Z,1012.02
2023-05-22T05:36:10.021Z,1012.02
2023-05-22T05:36:40.318Z,1012.02
2023-05-22T05:37:11.965Z,1011.92
2023-05-22T05:37:43.252Z,1011.92
2023-05-22T05:38:14.815Z,1011.92
2023-05-22T05:38:44.244Z,1011.92
2023-05-22T05:39:15.924Z,1011.82
2023-05-22T05:39:46.158Z,1011.82
2023-05-22T05:40:18.497Z,1012.02
2023-05-22T05:40:51.460Z,1012.02
2023-05-22T05:41:19.872Z,1011.82
2023-05-22T05:41:50.252Z,1011.82
2023-05-22T05:42:22.184Z,1012.12
2023-05-22T05:42:53.150Z,1012.12
2023-05-22T05:43:24.121Z,1012.22
2023-05-22T05:43:54.282Z,1012.22
2023-05-22T05:44:26.013Z,1012.02
2023-05-22T05:44:56.124Z,1012.02
2023-05-22T05:45:28.785Z,1012.02
2023-05-22T05:45:58.507Z,1012.02
2023-05-22T05:46:30.048Z,1012.12
2023-05-22T05:47:00.176Z,1012.12
2023-05-22T05:47:31.869Z,1011.82
2023-05-22T05:48:10.376Z,1011.82
2023-05-22T05:48:33.949Z,1012.12
2023-05-22T05:49:05.194Z,1011.92
2023-05-22T05:49:36.936Z,1011.92
2023-05-22T05:50:07.301Z,1012.12
2023-05-22T05:50:38.146Z,1012.12
2023-05-22T05:51:08.294Z,1011.82
2023-05-22T05:51:40.539Z,1011.82
2023-05-22T05:52:10.207Z,1012.12
2023-05-22T05:52:41.897Z,1012.12
2023-05-22T05:53:13.211Z,1011.72
2023-05-22T05:53:44.393Z,1011.72
2023-05-22T05:54:14.415Z,1012.12
2023-05-22T05:54:45.869Z,1012.12
2023-05-22T05:55:16.899Z,1012.12
2023-05-22T05:55:48.093Z,1012.12
2023-05-22T05:56:18.156Z,1012.12
2023-05-22T05:56:49.852Z,1012.12
2023-05-22T05:57:20.212Z,1012.02
2023-05-22T05:57:51.826Z,1012.02
2023-05-22T05:58:23.790Z,1011.82
2023-05-22T05:58:53.885Z,1011.82
2023-05-22T05:59:24.244Z,1012.12
2023-05-22T05:59:55.371Z,1012.12
2023-05-22T06:00:28.628Z,1012.22
2023-05-22T06:01:02.335Z,1012.22
2023-05-22T06:01:28.918Z,1011.82
2023-05-22T06:01:59.202Z,1011.82
2023-05-22T06:02:31.315Z,1012.02
2023-05-22T06:03:01.450Z,1012.02
2023-05-22T06:03:34.293Z,1012.12
2023-05-22T06:04:03.756Z,1011.92
2023-05-22T06:04:36.134Z,1011.92
2023-05-22T06:05:07.076Z,1012.02
2023-05-22T06:05:36.985Z,1012.02
2023-05-22T06:06:07.180Z,1011.82
2023-05-22T06:06:40.100Z,1011.82
2023-05-22T06:07:09.434Z,1011.92
2023-05-22T06:07:40.918Z,1011.92
2023-05-22T06:08:11.210Z,1011.92
2023-05-22T06:08:44.110Z,1011.92
2023-05-22T06:09:13.971Z,1012.12
2023-05-22T06:09:45.029Z,1012.12
2023-05-22T06:10:15.751Z,1012.02
2023-05-22T06:10:46.908Z,1012.02
2023-05-22T06:11:17.191Z,1012.02
2023-05-22T06:11:49.743Z,1012.02
2023-05-22T06:12:19.293Z,1012.12
2023-05-22T06:12:50.869Z,1012.12
2023-05-22T06:13:21.438Z,1012.12
2023-05-22T06:13:53.871Z,1012.12
2023-05-22T06:14:23.592Z,1012.12
2023-05-22T06:14:55.052Z,1012.12
2023-05-22T06:15:26.218Z,1012.02